logo
Search for airport 
image banner adimage banner adimage banner ad
image banner ad

LKST - Strakonice

Located in Strakonice, Czech Republic

ICAO - LKST, IATA -

Data provided by Airmate  

General information

Coordinates: N49°15'6" E13°53'34"
Elevation is 1378 feet MSL.
 
View others Airports in South Bohemian Region

Operational data

Special qualification required
Current time UTC:
Current local time:
Weather at : LKLN - Plzen/Line ( 65 km )
METAR: LKLN 171800Z AUTO VRB02KT 9999 // FEW021 SCT030 OVC038 06/04 Q1008
View NOTAMs / SUP AIP / TFR affecting this airport [VIEW]
Communications frequencies: [VIEW]

Runways:

RWY identifierQFULength (ft)Width (ft)SurfaceLDA (ft)
13255982GRASS
31255982GRASS
0300GRASS
2100GRASS

Airport contact information

Address: Strakonice Czech Republic

Other aviation service providers

Flight schools

Air Cirrus

Air Cirrus
+420342321491

Aviation club (not for profit)

Aeroklub Strakonice

Aeroklub Strakonice

Satellite view of LKST